Time;durP1;ratioP1;P1;durP2;ratioP2;P2;SDS_P1;SDS_P2;PMS_P1;PMS_P2;Temp;Humidity;BMP_temperature;BMP_pressure;BME280_temperature;BME280_humidity;BME280_pressure;Samples;Min_cycle;Max_cycle;Signal;HPM_P1;HPM_P2
2023/07/19 00:01:39;;;;;;;8.40;4.35;;;;;;;;;;10567462;28;20066;-83
2023/07/19 00:06:40;;;;;;;7.72;4.30;;;;;;;;;;10569276;28;20042;-82
2023/07/19 00:11:41;;;;;;;7.15;4.70;;;;;;;;;;10535681;28;20395;-83
2023/07/19 00:16:42;;;;;;;6.85;4.30;;;;;;;;;;10549865;28;20044;-83
2023/07/19 00:21:43;;;;;;;8.55;4.70;;;;;;;;;;10563096;28;20463;-83
2023/07/19 00:26:45;;;;;;;8.32;4.10;;;;;;;;;;10566231;28;20020;-83
2023/07/19 00:31:46;;;;;;;5.65;4.43;;;;;;;;;;10576940;28;20040;-84
2023/07/19 00:36:47;;;;;;;8.90;4.90;;;;;;;;;;10576650;28;20386;-84
2023/07/19 00:41:48;;;;;;;6.47;4.03;;;;;;;;;;10554541;28;20058;-82
2023/07/19 00:46:49;;;;;;;8.63;4.07;;;;;;;;;;10553593;28;20043;-82
2023/07/19 00:51:50;;;;;;;6.85;4.43;;;;;;;;;;10546805;28;20019;-83
2023/07/19 00:56:51;;;;;;;9.43;4.80;;;;;;;;;;10563050;28;20036;-83
2023/07/19 01:01:53;;;;;;;7.38;4.40;;;;;;;;;;10554174;28;20048;-83
2023/07/19 01:06:54;;;;;;;7.40;4.22;;;;;;;;;;10575860;28;20027;-84
2023/07/19 01:11:55;;;;;;;6.28;4.43;;;;;;;;;;10551745;27;20069;-84
2023/07/19 01:16:56;;;;;;;7.20;4.60;;;;;;;;;;10559706;28;20039;-83
2023/07/19 01:21:58;;;;;;;5.90;3.92;;;;;;;;;;10547199;28;20042;-83
2023/07/19 01:26:59;;;;;;;6.00;4.20;;;;;;;;;;10551179;28;20032;-82
2023/07/19 01:32:00;;;;;;;8.10;4.20;;;;;;;;;;10573132;28;20478;-83
2023/07/19 01:37:01;;;;;;;6.30;4.40;;;;;;;;;;10561563;28;20040;-84
2023/07/19 01:42:02;;;;;;;7.18;3.78;;;;;;;;;;10572790;28;20055;-83
2023/07/19 01:47:03;;;;;;;5.47;3.67;;;;;;;;;;10574078;28;20034;-85
2023/07/19 01:52:05;;;;;;;8.52;4.65;;;;;;;;;;10550085;28;20023;-83
2023/07/19 01:57:06;;;;;;;11.70;4.50;;;;;;;;;;10554773;28;20621;-83
2023/07/19 02:02:07;;;;;;;7.93;4.28;;;;;;;;;;10560456;28;20030;-85
2023/07/19 02:07:08;;;;;;;7.22;4.00;;;;;;;;;;10574139;28;20028;-84
2023/07/19 02:12:09;;;;;;;5.95;3.60;;;;;;;;;;10555553;28;20039;-83
2023/07/19 02:17:10;;;;;;;5.07;3.60;;;;;;;;;;10572676;28;20031;-85
2023/07/19 02:22:12;;;;;;;7.82;4.07;;;;;;;;;;10558335;28;20034;-83
2023/07/19 02:27:13;;;;;;;6.20;4.05;;;;;;;;;;10557207;28;20442;-83
2023/07/19 02:32:14;;;;;;;7.65;3.97;;;;;;;;;;10557008;28;20031;-83
2023/07/19 02:37:15;;;;;;;7.50;4.18;;;;;;;;;;10562557;28;20045;-82
2023/07/19 02:42:16;;;;;;;8.73;3.88;;;;;;;;;;10546587;28;20065;-83
2023/07/19 02:47:17;;;;;;;8.73;4.13;;;;;;;;;;10551013;28;20043;-83
2023/07/19 02:52:18;;;;;;;5.97;3.83;;;;;;;;;;10565715;28;20044;-83
2023/07/19 02:57:19;;;;;;;6.60;4.35;;;;;;;;;;10548207;28;20447;-84
2023/07/19 03:02:20;;;;;;;6.35;3.70;;;;;;;;;;10541356;28;20023;-83
2023/07/19 03:07:21;;;;;;;5.85;3.50;;;;;;;;;;10527664;28;20039;-83
2023/07/19 03:12:23;;;;;;;7.55;4.13;;;;;;;;;;10528317;28;20040;-82
2023/07/19 03:17:24;;;;;;;8.18;3.75;;;;;;;;;;10528500;28;20422;-83
2023/07/19 03:22:25;;;;;;;5.65;3.30;;;;;;;;;;10527481;28;20035;-83
2023/07/19 03:27:26;;;;;;;6.03;3.50;;;;;;;;;;10527572;28;20040;-85
2023/07/19 03:32:29;;;;;;;6.07;3.83;;;;;;;;;;10528299;28;20026;-82
2023/07/19 03:37:30;;;;;;;5.40;3.60;;;;;;;;;;10528019;28;20072;-83
2023/07/19 03:42:31;;;;;;;10.45;3.88;;;;;;;;;;10528071;28;20417;-85
2023/07/19 03:47:33;;;;;;;6.25;3.33;;;;;;;;;;10528704;28;20032;-82
2023/07/19 03:52:34;;;;;;;10.30;3.75;;;;;;;;;;10528088;28;20060;-82
2023/07/19 03:57:35;;;;;;;5.55;3.72;;;;;;;;;;10528420;28;20761;-85
2023/07/19 04:02:36;;;;;;;7.78;3.88;;;;;;;;;;10555135;28;20027;-82
2023/07/19 04:07:37;;;;;;;8.13;4.03;;;;;;;;;;10567909;28;20031;-83
2023/07/19 04:12:37;;;;;;;6.70;3.47;;;;;;;;;;10558842;28;20380;-82
2023/07/19 04:17:38;;;;;;;5.90;3.83;;;;;;;;;;10568185;28;20024;-83
2023/07/19 04:22:40;;;;;;;5.35;3.10;;;;;;;;;;10561304;28;20035;-81
2023/07/19 04:27:41;;;;;;;4.70;3.13;;;;;;;;;;10551570;28;20028;-84
2023/07/19 04:32:42;;;;;;;5.30;2.90;;;;;;;;;;10538394;28;20659;-84
2023/07/19 04:37:43;;;;;;;5.63;3.08;;;;;;;;;;10533754;28;20130;-84
2023/07/19 04:42:44;;;;;;;7.82;3.25;;;;;;;;;;10544754;28;20052;-84
2023/07/19 04:47:46;;;;;;;4.75;2.90;;;;;;;;;;10540306;28;20031;-83
2023/07/19 04:52:48;;;;;;;5.45;2.75;;;;;;;;;;10540155;28;20032;-83
2023/07/19 04:57:49;;;;;;;4.25;3.40;;;;;;;;;;10537252;28;20020;-84
2023/07/19 05:02:50;;;;;;;4.93;3.20;;;;;;;;;;10525050;28;20035;-85
2023/07/19 05:07:51;;;;;;;6.78;2.67;;;;;;;;;;10544252;28;20079;-85
2023/07/19 05:12:52;;;;;;;4.07;2.97;;;;;;;;;;10547335;28;20392;-84
2023/07/19 05:17:53;;;;;;;4.20;2.80;;;;;;;;;;10554658;28;20046;-84
2023/07/19 05:22:54;;;;;;;5.35;2.90;;;;;;;;;;10543000;28;20050;-85
2023/07/19 05:27:55;;;;;;;5.53;3.33;;;;;;;;;;10561201;28;20035;-85
2023/07/19 05:32:56;;;;;;;7.35;3.30;;;;;;;;;;10546125;28;20516;-85
2023/07/19 05:37:57;;;;;;;6.07;3.83;;;;;;;;;;10555530;28;20058;-84
2023/07/19 05:42:58;;;;;;;6.32;3.35;;;;;;;;;;10540554;28;20127;-85
2023/07/19 05:47:59;;;;;;;6.35;3.40;;;;;;;;;;10557302;28;20544;-84
2023/07/19 05:53:00;;;;;;;7.20;3.58;;;;;;;;;;10538374;28;20118;-85
2023/07/19 05:58:01;;;;;;;6.55;3.28;;;;;;;;;;10559501;28;20042;-84
2023/07/19 06:03:02;;;;;;;8.07;4.03;;;;;;;;;;10554309;28;20042;-85
2023/07/19 06:08:04;;;;;;;8.32;3.38;;;;;;;;;;10550610;28;20042;-86
2023/07/19 06:13:05;;;;;;;8.48;4.10;;;;;;;;;;10535976;28;20039;-85
2023/07/19 06:18:06;;;;;;;8.00;3.80;;;;;;;;;;10546499;28;20031;-85
2023/07/19 06:23:07;;;;;;;9.93;3.95;;;;;;;;;;10533165;28;20126;-86
2023/07/19 06:28:08;;;;;;;6.97;3.75;;;;;;;;;;10562357;28;20032;-85
2023/07/19 06:33:10;;;;;;;6.38;3.65;;;;;;;;;;10552591;28;20035;-85
2023/07/19 06:38:11;;;;;;;10.30;3.60;;;;;;;;;;10563749;28;20028;-85
2023/07/19 06:43:12;;;;;;;8.50;3.55;;;;;;;;;;10535848;28;20059;-86
2023/07/19 06:48:13;;;;;;;7.28;3.20;;;;;;;;;;10560376;28;20068;-85
2023/07/19 06:53:14;;;;;;;6.18;3.35;;;;;;;;;;10528643;28;20089;-86
2023/07/19 06:58:15;;;;;;;5.88;3.30;;;;;;;;;;10546954;28;20545;-85
2023/07/19 07:03:16;;;;;;;5.95;2.95;;;;;;;;;;10541596;28;20080;-86
2023/07/19 07:08:17;;;;;;;4.28;2.88;;;;;;;;;;10547043;28;20036;-86
2023/07/19 07:13:18;;;;;;;9.77;4.32;;;;;;;;;;10549934;28;20780;-87
2023/07/19 07:18:19;;;;;;;5.72;2.80;;;;;;;;;;10540629;28;20024;-86
2023/07/19 07:23:21;;;;;;;8.40;3.55;;;;;;;;;;10536914;28;20031;-86
2023/07/19 07:28:23;;;;;;;6.90;3.65;;;;;;;;;;10551368;28;20020;-86
2023/07/19 07:33:24;;;;;;;6.15;3.47;;;;;;;;;;10544442;28;20505;-87
2023/07/19 07:38:25;;;;;;;9.45;4.68;;;;;;;;;;10550371;28;20020;-86
2023/07/19 07:43:26;;;;;;;8.00;4.47;;;;;;;;;;10550870;28;20043;-86
2023/07/19 07:48:27;;;;;;;6.25;4.00;;;;;;;;;;10539352;28;20027;-86
2023/07/19 07:53:28;;;;;;;10.57;3.30;;;;;;;;;;10546736;28;20115;-86
2023/07/19 07:58:29;;;;;;;7.95;3.85;;;;;;;;;;10540757;28;20034;-86
2023/07/19 08:03:31;;;;;;;8.98;4.18;;;;;;;;;;10557480;28;20110;-86
2023/07/19 08:08:32;;;;;;;6.80;3.90;;;;;;;;;;10544529;28;20030;-87
2023/07/19 08:13:33;;;;;;;5.47;3.20;;;;;;;;;;10551993;28;20048;-86
2023/07/19 08:18:34;;;;;;;5.60;3.40;;;;;;;;;;10534442;28;20565;-85
2023/07/19 08:23:35;;;;;;;12.00;4.28;;;;;;;;;;10532358;28;20109;-87
2023/07/19 08:28:36;;;;;;;4.40;3.45;;;;;;;;;;10535119;28;20120;-86
2023/07/19 08:33:37;;;;;;;6.40;3.80;;;;;;;;;;10545621;28;20027;-87
2023/07/19 08:38:39;;;;;;;7.80;3.95;;;;;;;;;;10546798;28;20027;-86
2023/07/19 08:43:41;;;;;;;7.53;3.42;;;;;;;;;;10557508;28;20028;-86
2023/07/19 08:48:44;;;;;;;6.35;3.50;;;;;;;;;;10545057;28;20097;-86
2023/07/19 08:53:46;;;;;;;5.75;3.28;;;;;;;;;;10561947;28;20066;-86
2023/07/19 08:58:47;;;;;;;6.78;2.95;;;;;;;;;;10552820;28;20044;-87
2023/07/19 09:03:48;;;;;;;5.28;2.92;;;;;;;;;;10554854;28;20031;-85
2023/07/19 09:08:51;;;;;;;7.65;3.22;;;;;;;;;;10546529;28;20343;-87
2023/07/19 09:13:56;;;;;;;5.05;3.03;;;;;;;;;;10548642;28;20032;-86
2023/07/19 09:18:57;;;;;;;5.78;3.55;;;;;;;;;;10534629;28;20035;-85
2023/07/19 09:23:59;;;;;;;6.78;2.75;;;;;;;;;;10573903;28;20554;-84
2023/07/19 09:29:00;;;;;;;3.20;2.20;;;;;;;;;;10558728;28;20409;-84
2023/07/19 09:34:01;;;;;;;2.83;2.17;;;;;;;;;;10574466;28;20023;-85
2023/07/19 09:39:03;;;;;;;5.10;2.35;;;;;;;;;;10573278;28;20059;-84
2023/07/19 09:44:09;;;;;;;4.32;2.50;;;;;;;;;;10573302;28;20396;-85
2023/07/19 09:49:10;;;;;;;5.00;2.50;;;;;;;;;;10571953;28;20356;-87
2023/07/19 09:54:15;;;;;;;4.72;2.95;;;;;;;;;;10571916;28;20034;-86
2023/07/19 09:59:20;;;;;;;5.53;3.00;;;;;;;;;;10572043;28;20073;-86
2023/07/19 10:04:28;;;;;;;4.65;3.00;;;;;;;;;;10573768;28;20035;-86
2023/07/19 10:09:29;;;;;;;4.35;3.22;;;;;;;;;;10570498;28;20027;-86
2023/07/19 10:14:32;;;;;;;4.70;2.70;;;;;;;;;;10571869;28;20036;-85
2023/07/19 10:19:35;;;;;;;6.45;2.65;;;;;;;;;;10571091;28;20796;-86
2023/07/19 10:24:37;;;;;;;4.40;2.35;;;;;;;;;;10570514;28;20039;-86
2023/07/19 10:29:45;;;;;;;7.05;3.70;;;;;;;;;;10571371;28;20056;-85
2023/07/19 10:34:46;;;;;;;7.22;2.85;;;;;;;;;;10570120;28;20123;-85
2023/07/19 10:39:48;;;;;;;5.10;3.50;;;;;;;;;;10572079;28;20082;-87
2023/07/19 10:44:49;;;;;;;4.82;2.70;;;;;;;;;;10570810;28;20097;-85
2023/07/19 10:49:50;;;;;;;4.38;2.92;;;;;;;;;;10569605;28;20027;-86
2023/07/19 10:54:55;;;;;;;5.50;3.17;;;;;;;;;;10570478;27;20045;-85
2023/07/19 10:59:56;;;;;;;6.78;3.45;;;;;;;;;;10528462;28;20119;-86
2023/07/19 11:04:57;;;;;;;5.85;3.60;;;;;;;;;;10569514;28;20032;-87
2023/07/19 11:09:59;;;;;;;5.63;3.67;;;;;;;;;;10566689;28;20032;-86
2023/07/19 11:15:01;;;;;;;5.60;3.65;;;;;;;;;;10568725;28;20047;-86
2023/07/19 11:20:02;;;;;;;7.45;4.05;;;;;;;;;;10570969;28;20046;-87
2023/07/19 11:25:10;;;;;;;8.02;3.50;;;;;;;;;;10568608;28;20546;-86
2023/07/19 11:30:11;;;;;;;5.35;3.17;;;;;;;;;;10570847;28;20046;-88
2023/07/19 11:35:12;;;;;;;7.70;3.45;;;;;;;;;;10567962;28;20077;-87
2023/07/19 11:40:16;;;;;;;7.10;3.47;;;;;;;;;;10569621;27;20055;-86
2023/07/19 11:45:18;;;;;;;4.90;3.47;;;;;;;;;;10569678;28;20116;-88
2023/07/19 11:50:21;;;;;;;4.80;3.30;;;;;;;;;;10555949;28;20042;-86
2023/07/19 11:55:22;;;;;;;6.35;3.50;;;;;;;;;;10567969;28;20032;-84
2023/07/19 12:00:23;;;;;;;5.00;2.90;;;;;;;;;;10548594;28;20021;-85
2023/07/19 12:05:25;;;;;;;7.20;3.25;;;;;;;;;;10538038;28;20383;-86
2023/07/19 12:10:26;;;;;;;6.80;3.30;;;;;;;;;;10532867;28;20045;-87
2023/07/19 12:15:28;;;;;;;6.47;2.85;;;;;;;;;;10544446;28;20036;-85
2023/07/19 12:20:31;;;;;;;5.78;2.72;;;;;;;;;;10542497;28;20020;-86
2023/07/19 12:25:32;;;;;;;5.72;2.78;;;;;;;;;;10563787;28;20507;-86
2023/07/19 12:30:33;;;;;;;5.93;2.78;;;;;;;;;;10543407;28;20032;-86
2023/07/19 12:35:36;;;;;;;7.18;2.67;;;;;;;;;;10552934;28;20384;-85
2023/07/19 12:40:37;;;;;;;4.97;2.60;;;;;;;;;;10536715;28;20406;-87
2023/07/19 12:45:38;;;;;;;3.40;2.50;;;;;;;;;;10539710;28;20035;-84
2023/07/19 12:50:39;;;;;;;4.93;2.53;;;;;;;;;;10552481;28;20034;-85
2023/07/19 12:55:40;;;;;;;3.33;2.60;;;;;;;;;;10554246;28;20410;-87
2023/07/19 13:00:41;;;;;;;4.05;1.95;;;;;;;;;;10541918;28;20027;-84
2023/07/19 13:05:42;;;;;;;4.22;2.67;;;;;;;;;;10538467;28;20035;-85
2023/07/19 13:10:43;;;;;;;5.55;2.83;;;;;;;;;;10547344;28;20570;-85
2023/07/19 13:15:44;;;;;;;3.33;2.38;;;;;;;;;;10529967;28;20048;-84
2023/07/19 13:20:45;;;;;;;5.53;2.65;;;;;;;;;;10540679;28;20708;-85
2023/07/19 13:25:46;;;;;;;3.47;2.30;;;;;;;;;;10554727;28;20031;-83
2023/07/19 13:30:48;;;;;;;2.90;2.30;;;;;;;;;;10528692;28;20031;-84
2023/07/19 13:35:49;;;;;;;4.20;2.60;;;;;;;;;;10518800;28;20037;-82
2023/07/19 13:40:51;;;;;;;5.00;2.30;;;;;;;;;;10522305;28;20113;-85
2023/07/19 13:45:52;;;;;;;5.35;2.47;;;;;;;;;;10529194;28;20031;-83
2023/07/19 13:50:54;;;;;;;3.22;2.30;;;;;;;;;;10529504;28;20043;-85
2023/07/19 13:55:55;;;;;;;5.25;3.10;;;;;;;;;;10533382;28;20138;-82
2023/07/19 14:00:56;;;;;;;13.88;9.13;;;;;;;;;;10541664;28;20078;-83
2023/07/19 14:06:29;;;;;;;5.13;3.22;;;;;;;;;;10542877;28;20051;-85
2023/07/19 14:11:30;;;;;;;5.93;3.20;;;;;;;;;;10563968;28;20121;-86
2023/07/19 14:16:31;;;;;;;4.80;2.95;;;;;;;;;;10540420;28;20189;-87
2023/07/19 14:21:32;;;;;;;5.63;2.80;;;;;;;;;;10523406;28;20028;-86
2023/07/19 14:26:33;;;;;;;4.97;2.45;;;;;;;;;;10547091;28;20058;-86
2023/07/19 14:31:34;;;;;;;4.78;2.70;;;;;;;;;;10571492;28;20023;-85
2023/07/19 14:36:35;;;;;;;4.15;2.30;;;;;;;;;;10570878;28;20070;-85
2023/07/19 14:41:57;;;;;;;5.20;3.72;;;;;;;;;;10571806;28;20689;-87
2023/07/19 14:46:58;;;;;;;16.20;9.35;;;;;;;;;;10570615;28;20051;-88
2023/07/19 14:52:09;;;;;;;8.15;4.93;;;;;;;;;;10571909;28;20463;-85
2023/07/19 14:57:10;;;;;;;12.00;5.57;;;;;;;;;;10569421;28;20035;-86
2023/07/19 15:02:14;;;;;;;3.05;2.15;;;;;;;;;;10569604;28;20034;-86
2023/07/19 15:07:15;;;;;;;6.50;4.40;;;;;;;;;;10571645;28;20443;-86
2023/07/19 15:12:17;;;;;;;5.35;3.97;;;;;;;;;;10569485;28;20039;-87
2023/07/19 15:17:51;;;;;;;;;;;;;;;;;;;;;
2023/07/19 15:22:53;;;;;;;6.47;2.45;;;;;;;;;;10555619;28;20437;-85
2023/07/19 15:27:55;;;;;;;4.75;2.20;;;;;;;;;;10568862;28;20135;-86
2023/07/19 15:32:56;;;;;;;7.35;4.85;;;;;;;;;;10567885;28;20114;-86
2023/07/19 15:37:56;;;;;;;4.22;3.30;;;;;;;;;;10568591;28;20031;-87
2023/07/19 15:42:58;;;;;;;5.30;1.92;;;;;;;;;;10567738;28;20699;-86
2023/07/19 15:47:59;;;;;;;6.25;3.50;;;;;;;;;;10568015;28;20020;-86
2023/07/19 15:53:00;;;;;;;8.07;2.97;;;;;;;;;;10561275;28;20035;-86
2023/07/19 15:58:01;;;;;;;4.53;2.30;;;;;;;;;;10530458;28;20055;-85
2023/07/19 16:03:02;;;;;;;4.70;2.17;;;;;;;;;;10528083;28;20043;-84
2023/07/19 16:08:03;;;;;;;4.20;1.92;;;;;;;;;;10553628;28;20036;-85
2023/07/19 16:13:04;;;;;;;3.67;1.92;;;;;;;;;;10566166;28;20384;-84
2023/07/19 16:18:07;;;;;;;4.03;1.98;;;;;;;;;;10567030;28;20031;-85
2023/07/19 16:23:08;;;;;;;2.75;1.98;;;;;;;;;;10568654;28;20012;-85
2023/07/19 16:28:09;;;;;;;3.53;2.00;;;;;;;;;;10567620;28;20028;-83
2023/07/19 16:33:10;;;;;;;3.15;1.92;;;;;;;;;;10558627;28;20040;-85
2023/07/19 16:38:14;;;;;;;3.75;2.40;;;;;;;;;;10541969;28;20062;-84
2023/07/19 16:43:15;;;;;;;4.80;2.40;;;;;;;;;;10544125;28;20562;-85
2023/07/19 16:48:16;;;;;;;3.80;2.58;;;;;;;;;;10547387;28;20085;-86
2023/07/19 16:53:18;;;;;;;3.92;2.33;;;;;;;;;;10553273;28;20157;-85
2023/07/19 16:58:19;;;;;;;3.53;2.00;;;;;;;;;;10517423;28;20036;-87
2023/07/19 17:03:20;;;;;;;4.20;1.90;;;;;;;;;;10539200;28;20028;-85
2023/07/19 17:08:21;;;;;;;4.45;2.35;;;;;;;;;;10519432;28;20032;-87
2023/07/19 17:13:25;;;;;;;3.45;2.13;;;;;;;;;;10532442;28;20130;-87
2023/07/19 17:18:27;;;;;;;3.77;2.20;;;;;;;;;;10549520;28;20039;-88
2023/07/19 17:23:28;;;;;;;3.65;2.47;;;;;;;;;;10548508;28;20593;-89
2023/07/19 17:28:30;;;;;;;6.47;3.20;;;;;;;;;;10548090;28;20493;-87
2023/07/19 17:33:31;;;;;;;4.43;2.55;;;;;;;;;;10552528;28;20052;-87
2023/07/19 17:38:32;;;;;;;4.40;2.63;;;;;;;;;;10523723;28;20119;-87
2023/07/19 17:43:33;;;;;;;3.25;2.05;;;;;;;;;;10527063;28;20510;-87
2023/07/19 17:48:38;;;;;;;2.65;2.20;;;;;;;;;;10528214;28;20024;-90
2023/07/19 17:53:39;;;;;;;3.13;2.15;;;;;;;;;;10528765;28;20392;-88
2023/07/19 17:58:41;;;;;;;4.38;2.10;;;;;;;;;;10531393;28;20506;-87
2023/07/19 18:03:43;;;;;;;4.00;2.70;;;;;;;;;;10529340;28;20647;-87
2023/07/19 18:08:44;;;;;;;5.22;2.70;;;;;;;;;;10528899;28;20035;-88
2023/07/19 18:13:46;;;;;;;6.63;2.65;;;;;;;;;;10528711;28;20081;-92
2023/07/19 18:18:47;;;;;;;4.82;2.90;;;;;;;;;;10521678;28;20475;-86
2023/07/19 18:23:49;;;;;;;3.50;2.47;;;;;;;;;;10526494;28;20032;-85
2023/07/19 18:28:50;;;;;;;4.75;2.38;;;;;;;;;;10523236;28;20052;-87
2023/07/19 18:33:51;;;;;;;4.10;2.45;;;;;;;;;;10532683;28;20048;-86
2023/07/19 18:38:52;;;;;;;5.20;2.45;;;;;;;;;;10518774;28;20066;-85
2023/07/19 18:43:53;;;;;;;4.85;2.55;;;;;;;;;;10529870;28;20032;-85
2023/07/19 18:48:57;;;;;;;4.10;2.30;;;;;;;;;;10560580;28;20505;-86
2023/07/19 18:53:58;;;;;;;4.75;2.30;;;;;;;;;;10546421;28;20134;-86
2023/07/19 18:58:59;;;;;;;4.05;2.67;;;;;;;;;;10536807;28;20551;-86
2023/07/19 19:04:00;;;;;;;3.97;2.78;;;;;;;;;;10539822;28;20036;-85
2023/07/19 19:09:05;;;;;;;3.30;2.50;;;;;;;;;;10551682;28;20043;-86
2023/07/19 19:14:06;;;;;;;4.55;3.05;;;;;;;;;;10541320;28;20031;-86
2023/07/19 19:19:09;;;;;;;3.75;2.72;;;;;;;;;;10544859;28;20032;-86
2023/07/19 19:24:10;;;;;;;4.97;2.85;;;;;;;;;;10546429;28;20051;-89
2023/07/19 19:29:11;;;;;;;5.15;3.00;;;;;;;;;;10541253;28;20434;-89
2023/07/19 19:34:12;;;;;;;5.30;2.80;;;;;;;;;;10554085;28;20531;-87
2023/07/19 19:39:13;;;;;;;5.60;3.00;;;;;;;;;;10560284;28;20410;-86
2023/07/19 19:44:15;;;;;;;6.63;3.45;;;;;;;;;;10554606;28;20105;-83
2023/07/19 19:49:17;;;;;;;5.30;3.00;;;;;;;;;;10529770;28;20035;-84
2023/07/19 19:54:18;;;;;;;3.95;2.53;;;;;;;;;;10524597;28;20047;-81
2023/07/19 19:59:19;;;;;;;4.32;2.92;;;;;;;;;;10542047;28;20364;-82
2023/07/19 20:04:20;;;;;;;4.13;2.72;;;;;;;;;;10535918;28;20031;-82
2023/07/19 20:09:21;;;;;;;3.80;2.40;;;;;;;;;;10545841;28;20020;-82
2023/07/19 20:14:24;;;;;;;6.13;2.60;;;;;;;;;;10557122;28;20483;-81
2023/07/19 20:19:25;;;;;;;5.65;2.90;;;;;;;;;;10547047;28;20016;-83
2023/07/19 20:24:25;;;;;;;3.40;2.70;;;;;;;;;;10568433;28;20032;-82
2023/07/19 20:29:27;;;;;;;3.13;2.63;;;;;;;;;;10527793;28;20032;-82
2023/07/19 20:34:29;;;;;;;4.00;2.55;;;;;;;;;;10556553;28;20031;-83
2023/07/19 20:39:30;;;;;;;4.05;2.50;;;;;;;;;;10573962;28;20540;-82
2023/07/19 20:44:31;;;;;;;4.43;2.20;;;;;;;;;;10560813;28;20111;-82
2023/07/19 20:49:32;;;;;;;4.38;2.70;;;;;;;;;;10541002;28;20027;-83
2023/07/19 20:54:33;;;;;;;5.60;3.10;;;;;;;;;;10538228;22;20048;-82
2023/07/19 20:59:34;;;;;;;7.10;3.72;;;;;;;;;;10472879;28;20030;-81
2023/07/19 21:04:35;;;;;;;5.22;3.60;;;;;;;;;;10491967;28;20604;-83
2023/07/19 21:09:36;;;;;;;4.55;2.83;;;;;;;;;;10492216;28;20039;-81
2023/07/19 21:14:37;;;;;;;4.50;3.00;;;;;;;;;;10491642;28;20028;-82
2023/07/19 21:19:38;;;;;;;5.93;2.85;;;;;;;;;;10481512;28;20068;-82
2023/07/19 21:24:39;;;;;;;7.55;4.03;;;;;;;;;;10490842;28;20490;-82
2023/07/19 21:29:41;;;;;;;7.72;3.53;;;;;;;;;;10489178;28;20020;-84
2023/07/19 21:34:42;;;;;;;5.03;3.92;;;;;;;;;;10490858;28;20094;-82
2023/07/19 21:39:43;;;;;;;6.80;4.57;;;;;;;;;;10490227;28;20028;-82
2023/07/19 21:44:44;;;;;;;9.50;5.57;;;;;;;;;;10489973;28;20433;-82
2023/07/19 21:49:45;;;;;;;9.27;5.10;;;;;;;;;;10489933;28;20077;-84
2023/07/19 21:54:46;;;;;;;9.52;4.97;;;;;;;;;;10479214;28;20065;-84
2023/07/19 21:59:47;;;;;;;8.88;5.88;;;;;;;;;;10488541;28;20028;-82
2023/07/19 22:04:47;;;;;;;7.07;5.05;;;;;;;;;;10489758;28;20032;-82
2023/07/19 22:09:49;;;;;;;9.68;5.45;;;;;;;;;;10471361;28;20039;-82
2023/07/19 22:14:49;;;;;;;9.63;5.53;;;;;;;;;;10488031;28;20128;-81
2023/07/19 22:19:50;;;;;;;7.43;5.07;;;;;;;;;;10471061;28;20032;-84
2023/07/19 22:24:51;;;;;;;9.63;5.95;;;;;;;;;;10488975;28;20490;-83
2023/07/19 22:29:52;;;;;;;10.30;6.35;;;;;;;;;;10487571;28;20035;-82
2023/07/19 22:34:55;;;;;;;10.00;5.63;;;;;;;;;;10489113;28;20038;-82
2023/07/19 22:39:56;;;;;;;10.52;6.55;;;;;;;;;;10488044;28;20060;-81
2023/07/19 22:44:57;;;;;;;12.00;6.90;;;;;;;;;;10488403;28;20031;-82
2023/07/19 22:49:58;;;;;;;11.35;6.05;;;;;;;;;;10488340;28;20035;-81
2023/07/19 22:54:59;;;;;;;9.85;5.97;;;;;;;;;;10488042;28;20057;-82
2023/07/19 23:00:00;;;;;;;12.65;5.75;;;;;;;;;;10486544;28;20036;-83
2023/07/19 23:05:03;;;;;;;12.82;6.22;;;;;;;;;;10473960;28;20035;-81
2023/07/19 23:10:04;;;;;;;11.88;6.45;;;;;;;;;;10487090;28;20521;-81
2023/07/19 23:15:06;;;;;;;11.63;6.10;;;;;;;;;;10485859;28;20203;-79
2023/07/19 23:20:10;;;;;;;11.65;6.03;;;;;;;;;;10487048;28;20074;-81
2023/07/19 23:25:12;;;;;;;13.03;6.97;;;;;;;;;;10486483;28;20477;-81
2023/07/19 23:30:13;;;;;;;11.13;6.68;;;;;;;;;;10485975;28;20078;-81
2023/07/19 23:35:14;;;;;;;9.05;6.07;;;;;;;;;;10467868;28;20048;-83
2023/07/19 23:40:15;;;;;;;10.40;5.63;;;;;;;;;;10486175;28;20048;-81
2023/07/19 23:45:17;;;;;;;9.13;5.90;;;;;;;;;;10467179;28;20039;-82
2023/07/19 23:50:18;;;;;;;11.90;6.05;;;;;;;;;;10486212;28;20039;-81
2023/07/19 23:55:19;;;;;;;13.57;7.10;;;;;;;;;;10484487;28;20058;-81
